sensor_id;sensor_type;location;lat;lon;timestamp;P1;durP1;ratioP1;P2;durP2;ratioP2
74448;SDS011;62878;51.026;4.472;2022-08-18T00:01:43;3.05;;;2.60;;
74448;SDS011;62878;51.026;4.472;2022-08-18T00:04:12;7.93;;;3.60;;
74448;SDS011;62878;51.026;4.472;2022-08-18T00:06:38;4.40;;;3.10;;
74448;SDS011;62878;51.026;4.472;2022-08-18T00:09:05;3.22;;;2.83;;
74448;SDS011;62878;51.026;4.472;2022-08-18T00:11:32;4.07;;;3.20;;
74448;SDS011;62878;51.026;4.472;2022-08-18T00:14:00;4.60;;;3.15;;
74448;SDS011;62878;51.026;4.472;2022-08-18T00:16:25;3.85;;;3.08;;
74448;SDS011;62878;51.026;4.472;2022-08-18T00:18:51;3.85;;;3.15;;
74448;SDS011;62878;51.026;4.472;2022-08-18T00:21:16;4.13;;;2.88;;
74448;SDS011;62878;51.026;4.472;2022-08-18T00:23:43;4.72;;;3.28;;
74448;SDS011;62878;51.026;4.472;2022-08-18T00:26:08;4.03;;;2.95;;
74448;SDS011;62878;51.026;4.472;2022-08-18T00:28:34;4.10;;;3.17;;
74448;SDS011;62878;51.026;4.472;2022-08-18T00:30:59;3.40;;;2.78;;
74448;SDS011;62878;51.026;4.472;2022-08-18T00:33:25;5.97;;;3.60;;
74448;SDS011;62878;51.026;4.472;2022-08-18T00:35:51;3.67;;;3.17;;
74448;SDS011;62878;51.026;4.472;2022-08-18T00:38:16;3.70;;;3.35;;
74448;SDS011;62878;51.026;4.472;2022-08-18T00:40:44;3.72;;;3.38;;
74448;SDS011;62878;51.026;4.472;2022-08-18T00:43:17;4.32;;;3.72;;
74448;SDS011;62878;51.026;4.472;2022-08-18T00:45:47;4.65;;;3.85;;
74448;SDS011;62878;51.026;4.472;2022-08-18T00:48:13;5.85;;;4.25;;
74448;SDS011;62878;51.026;4.472;2022-08-18T00:50:40;5.07;;;4.55;;
74448;SDS011;62878;51.026;4.472;2022-08-18T00:55:51;4.88;;;3.50;;
74448;SDS011;62878;51.026;4.472;2022-08-18T00:58:29;4.43;;;3.65;;
74448;SDS011;62878;51.026;4.472;2022-08-18T01:00:58;5.60;;;3.97;;
74448;SDS011;62878;51.026;4.472;2022-08-18T01:03:26;5.38;;;4.05;;
74448;SDS011;62878;51.026;4.472;2022-08-18T01:05:58;4.57;;;4.13;;
74448;SDS011;62878;51.026;4.472;2022-08-18T01:08:30;5.47;;;4.25;;
74448;SDS011;62878;51.026;4.472;2022-08-18T01:10:56;7.10;;;5.20;;
74448;SDS011;62878;51.026;4.472;2022-08-18T01:13:26;5.90;;;4.65;;
74448;SDS011;62878;51.026;4.472;2022-08-18T01:15:54;8.15;;;4.53;;
74448;SDS011;62878;51.026;4.472;2022-08-18T01:18:20;6.38;;;5.15;;
74448;SDS011;62878;51.026;4.472;2022-08-18T01:21:11;4.80;;;4.00;;
74448;SDS011;62878;51.026;4.472;2022-08-18T01:24:01;6.40;;;4.72;;
74448;SDS011;62878;51.026;4.472;2022-08-18T01:26:29;7.80;;;5.00;;
74448;SDS011;62878;51.026;4.472;2022-08-18T01:29:03;5.35;;;4.25;;
74448;SDS011;62878;51.026;4.472;2022-08-18T01:34:04;8.90;;;5.03;;
74448;SDS011;62878;51.026;4.472;2022-08-18T01:36:30;8.00;;;5.53;;
74448;SDS011;62878;51.026;4.472;2022-08-18T01:38:58;7.40;;;5.43;;
74448;SDS011;62878;51.026;4.472;2022-08-18T01:41:24;7.00;;;5.20;;
74448;SDS011;62878;51.026;4.472;2022-08-18T01:43:50;9.30;;;5.30;;
74448;SDS011;62878;51.026;4.472;2022-08-18T01:46:17;9.57;;;6.15;;
74448;SDS011;62878;51.026;4.472;2022-08-18T01:48:44;11.52;;;5.95;;
74448;SDS011;62878;51.026;4.472;2022-08-18T01:51:10;8.00;;;5.47;;
74448;SDS011;62878;51.026;4.472;2022-08-18T01:53:37;8.73;;;5.57;;
74448;SDS011;62878;51.026;4.472;2022-08-18T01:56:02;9.05;;;6.50;;
74448;SDS011;62878;51.026;4.472;2022-08-18T01:58:30;8.68;;;6.00;;
74448;SDS011;62878;51.026;4.472;2022-08-18T02:00:56;8.48;;;6.13;;
74448;SDS011;62878;51.026;4.472;2022-08-18T02:03:27;10.02;;;6.25;;
74448;SDS011;62878;51.026;4.472;2022-08-18T02:05:59;7.95;;;6.30;;
74448;SDS011;62878;51.026;4.472;2022-08-18T02:08:26;10.30;;;7.07;;
74448;SDS011;62878;51.026;4.472;2022-08-18T02:10:54;9.77;;;6.38;;
74448;SDS011;62878;51.026;4.472;2022-08-18T02:13:22;9.95;;;7.25;;
74448;SDS011;62878;51.026;4.472;2022-08-18T02:15:49;10.10;;;7.63;;
74448;SDS011;62878;51.026;4.472;2022-08-18T02:18:22;10.60;;;8.00;;
74448;SDS011;62878;51.026;4.472;2022-08-18T02:20:50;11.27;;;8.38;;
74448;SDS011;62878;51.026;4.472;2022-08-18T02:23:16;11.45;;;7.30;;
74448;SDS011;62878;51.026;4.472;2022-08-18T02:25:41;12.30;;;7.05;;
74448;SDS011;62878;51.026;4.472;2022-08-18T02:28:07;10.13;;;7.05;;
74448;SDS011;62878;51.026;4.472;2022-08-18T02:30:34;9.50;;;7.00;;
74448;SDS011;62878;51.026;4.472;2022-08-18T02:33:02;11.05;;;7.80;;
74448;SDS011;62878;51.026;4.472;2022-08-18T02:35:30;14.02;;;8.30;;
74448;SDS011;62878;51.026;4.472;2022-08-18T02:38:03;13.13;;;8.32;;
74448;SDS011;62878;51.026;4.472;2022-08-18T02:40:30;13.82;;;8.68;;
74448;SDS011;62878;51.026;4.472;2022-08-18T02:42:58;12.38;;;8.52;;
74448;SDS011;62878;51.026;4.472;2022-08-18T02:45:24;11.90;;;8.05;;
74448;SDS011;62878;51.026;4.472;2022-08-18T02:47:53;11.60;;;7.95;;
74448;SDS011;62878;51.026;4.472;2022-08-18T02:50:20;11.50;;;8.85;;
74448;SDS011;62878;51.026;4.472;2022-08-18T02:52:45;12.68;;;8.50;;
74448;SDS011;62878;51.026;4.472;2022-08-18T02:55:11;11.82;;;8.23;;
74448;SDS011;62878;51.026;4.472;2022-08-18T02:57:40;13.68;;;8.40;;
74448;SDS011;62878;51.026;4.472;2022-08-18T03:00:07;15.90;;;8.13;;
74448;SDS011;62878;51.026;4.472;2022-08-18T03:02:36;13.23;;;8.80;;
74448;SDS011;62878;51.026;4.472;2022-08-18T03:05:02;13.18;;;8.50;;
74448;SDS011;62878;51.026;4.472;2022-08-18T03:07:28;12.65;;;8.65;;
74448;SDS011;62878;51.026;4.472;2022-08-18T03:09:53;12.20;;;7.97;;
74448;SDS011;62878;51.026;4.472;2022-08-18T03:12:19;10.40;;;7.65;;
74448;SDS011;62878;51.026;4.472;2022-08-18T03:14:44;11.40;;;8.45;;
74448;SDS011;62878;51.026;4.472;2022-08-18T03:17:10;11.38;;;8.07;;
74448;SDS011;62878;51.026;4.472;2022-08-18T03:19:38;10.77;;;8.45;;
74448;SDS011;62878;51.026;4.472;2022-08-18T03:22:06;11.07;;;7.75;;
74448;SDS011;62878;51.026;4.472;2022-08-18T03:24:32;11.65;;;8.18;;
74448;SDS011;62878;51.026;4.472;2022-08-18T03:26:59;12.27;;;8.77;;
74448;SDS011;62878;51.026;4.472;2022-08-18T03:29:28;11.02;;;7.97;;
74448;SDS011;62878;51.026;4.472;2022-08-18T03:31:53;11.50;;;8.35;;
74448;SDS011;62878;51.026;4.472;2022-08-18T03:34:19;12.13;;;8.45;;
74448;SDS011;62878;51.026;4.472;2022-08-18T03:36:45;11.65;;;8.20;;
74448;SDS011;62878;51.026;4.472;2022-08-18T03:39:12;13.20;;;9.20;;
74448;SDS011;62878;51.026;4.472;2022-08-18T03:41:39;10.43;;;7.53;;
74448;SDS011;62878;51.026;4.472;2022-08-18T03:44:06;12.20;;;8.65;;
74448;SDS011;62878;51.026;4.472;2022-08-18T03:46:32;12.00;;;8.98;;
74448;SDS011;62878;51.026;4.472;2022-08-18T03:48:57;11.60;;;8.60;;
74448;SDS011;62878;51.026;4.472;2022-08-18T03:51:24;11.90;;;9.10;;
74448;SDS011;62878;51.026;4.472;2022-08-18T03:53:55;11.18;;;8.02;;
74448;SDS011;62878;51.026;4.472;2022-08-18T03:56:26;13.55;;;9.55;;
74448;SDS011;62878;51.026;4.472;2022-08-18T03:58:56;14.07;;;9.35;;
74448;SDS011;62878;51.026;4.472;2022-08-18T04:01:23;13.23;;;8.63;;
74448;SDS011;62878;51.026;4.472;2022-08-18T04:03:55;10.63;;;8.50;;
74448;SDS011;62878;51.026;4.472;2022-08-18T04:06:24;11.52;;;8.35;;
74448;SDS011;62878;51.026;4.472;2022-08-18T04:08:52;11.43;;;7.75;;
74448;SDS011;62878;51.026;4.472;2022-08-18T04:11:18;12.18;;;8.73;;
74448;SDS011;62878;51.026;4.472;2022-08-18T04:13:44;11.45;;;8.77;;
74448;SDS011;62878;51.026;4.472;2022-08-18T04:16:09;12.07;;;9.02;;
74448;SDS011;62878;51.026;4.472;2022-08-18T04:18:35;12.43;;;8.48;;
74448;SDS011;62878;51.026;4.472;2022-08-18T04:21:04;13.85;;;9.18;;
74448;SDS011;62878;51.026;4.472;2022-08-18T04:23:38;11.38;;;8.15;;
74448;SDS011;62878;51.026;4.472;2022-08-18T04:26:05;12.38;;;8.40;;
74448;SDS011;62878;51.026;4.472;2022-08-18T04:28:32;12.43;;;8.20;;
74448;SDS011;62878;51.026;4.472;2022-08-18T04:30:58;11.88;;;8.90;;
74448;SDS011;62878;51.026;4.472;2022-08-18T04:33:27;12.98;;;9.15;;
74448;SDS011;62878;51.026;4.472;2022-08-18T04:35:53;12.50;;;8.68;;
74448;SDS011;62878;51.026;4.472;2022-08-18T04:38:19;13.10;;;9.02;;
74448;SDS011;62878;51.026;4.472;2022-08-18T04:40:45;13.70;;;8.93;;
74448;SDS011;62878;51.026;4.472;2022-08-18T04:43:11;13.73;;;8.75;;
74448;SDS011;62878;51.026;4.472;2022-08-18T04:45:43;11.80;;;8.70;;
74448;SDS011;62878;51.026;4.472;2022-08-18T04:48:09;13.20;;;9.18;;
74448;SDS011;62878;51.026;4.472;2022-08-18T04:50:38;12.68;;;8.85;;
74448;SDS011;62878;51.026;4.472;2022-08-18T04:53:04;11.30;;;7.80;;
74448;SDS011;62878;51.026;4.472;2022-08-18T04:55:48;10.68;;;8.20;;
74448;SDS011;62878;51.026;4.472;2022-08-18T04:58:18;12.05;;;8.68;;
74448;SDS011;62878;51.026;4.472;2022-08-18T05:00:45;13.07;;;8.60;;
74448;SDS011;62878;51.026;4.472;2022-08-18T05:03:11;12.07;;;8.55;;
74448;SDS011;62878;51.026;4.472;2022-08-18T05:05:37;13.38;;;9.40;;
74448;SDS011;62878;51.026;4.472;2022-08-18T05:08:03;11.68;;;8.65;;
74448;SDS011;62878;51.026;4.472;2022-08-18T05:10:29;11.95;;;8.93;;
74448;SDS011;62878;51.026;4.472;2022-08-18T05:12:54;12.10;;;9.48;;
74448;SDS011;62878;51.026;4.472;2022-08-18T05:15:20;15.18;;;9.65;;
74448;SDS011;62878;51.026;4.472;2022-08-18T05:17:46;11.45;;;8.07;;
74448;SDS011;62878;51.026;4.472;2022-08-18T05:20:11;10.80;;;8.15;;
74448;SDS011;62878;51.026;4.472;2022-08-18T05:22:38;12.88;;;8.93;;
74448;SDS011;62878;51.026;4.472;2022-08-18T05:25:05;10.70;;;8.27;;
74448;SDS011;62878;51.026;4.472;2022-08-18T05:27:35;12.10;;;8.95;;
74448;SDS011;62878;51.026;4.472;2022-08-18T05:30:02;13.10;;;9.00;;
74448;SDS011;62878;51.026;4.472;2022-08-18T05:32:31;10.65;;;7.93;;
74448;SDS011;62878;51.026;4.472;2022-08-18T05:35:12;12.07;;;8.75;;
74448;SDS011;62878;51.026;4.472;2022-08-18T05:40:12;11.40;;;8.60;;
74448;SDS011;62878;51.026;4.472;2022-08-18T05:42:38;10.77;;;7.75;;
74448;SDS011;62878;51.026;4.472;2022-08-18T05:45:13;12.70;;;8.45;;
74448;SDS011;62878;51.026;4.472;2022-08-18T05:47:41;11.35;;;8.60;;
74448;SDS011;62878;51.026;4.472;2022-08-18T05:50:08;9.10;;;6.93;;
74448;SDS011;62878;51.026;4.472;2022-08-18T05:55:26;12.95;;;8.25;;
74448;SDS011;62878;51.026;4.472;2022-08-18T05:58:18;11.02;;;8.13;;
74448;SDS011;62878;51.026;4.472;2022-08-18T06:00:51;10.88;;;8.32;;
74448;SDS011;62878;51.026;4.472;2022-08-18T06:03:25;8.93;;;7.10;;
74448;SDS011;62878;51.026;4.472;2022-08-18T06:05:57;12.77;;;8.15;;
74448;SDS011;62878;51.026;4.472;2022-08-18T06:08:49;11.18;;;8.10;;
74448;SDS011;62878;51.026;4.472;2022-08-18T06:11:17;12.15;;;8.13;;
74448;SDS011;62878;51.026;4.472;2022-08-18T06:13:42;12.63;;;7.93;;
74448;SDS011;62878;51.026;4.472;2022-08-18T06:16:13;12.18;;;8.07;;
74448;SDS011;62878;51.026;4.472;2022-08-18T06:27:00;11.13;;;8.02;;
74448;SDS011;62878;51.026;4.472;2022-08-18T06:37:34;12.18;;;8.60;;
74448;SDS011;62878;51.026;4.472;2022-08-18T06:40:26;11.18;;;7.97;;
74448;SDS011;62878;51.026;4.472;2022-08-18T06:42:52;14.10;;;8.38;;
74448;SDS011;62878;51.026;4.472;2022-08-18T06:45:17;11.95;;;7.47;;
74448;SDS011;62878;51.026;4.472;2022-08-18T06:47:49;10.43;;;7.43;;
74448;SDS011;62878;51.026;4.472;2022-08-18T06:50:31;13.85;;;8.10;;
74448;SDS011;62878;51.026;4.472;2022-08-18T06:53:10;11.57;;;8.13;;
74448;SDS011;62878;51.026;4.472;2022-08-18T06:55:37;11.48;;;7.50;;
74448;SDS011;62878;51.026;4.472;2022-08-18T07:00:43;11.73;;;8.07;;
74448;SDS011;62878;51.026;4.472;2022-08-18T07:03:41;34.15;;;20.67;;
74448;SDS011;62878;51.026;4.472;2022-08-18T07:08:45;23.85;;;14.32;;
74448;SDS011;62878;51.026;4.472;2022-08-18T07:13:47;27.27;;;16.50;;
74448;SDS011;62878;51.026;4.472;2022-08-18T07:18:40;23.20;;;14.85;;
74448;SDS011;62878;51.026;4.472;2022-08-18T07:21:05;22.67;;;14.32;;
74448;SDS011;62878;51.026;4.472;2022-08-18T07:23:35;25.67;;;14.23;;
74448;SDS011;62878;51.026;4.472;2022-08-18T07:26:13;25.88;;;14.30;;
74448;SDS011;62878;51.026;4.472;2022-08-18T07:28:42;21.45;;;12.93;;
74448;SDS011;62878;51.026;4.472;2022-08-18T07:34:11;20.77;;;13.32;;
74448;SDS011;62878;51.026;4.472;2022-08-18T07:36:49;22.67;;;13.35;;
74448;SDS011;62878;51.026;4.472;2022-08-18T07:39:25;25.65;;;13.23;;
74448;SDS011;62878;51.026;4.472;2022-08-18T07:41:55;21.05;;;11.80;;
74448;SDS011;62878;51.026;4.472;2022-08-18T07:44:37;20.17;;;11.90;;
74448;SDS011;62878;51.026;4.472;2022-08-18T07:47:21;19.52;;;11.10;;
74448;SDS011;62878;51.026;4.472;2022-08-18T07:49:50;18.13;;;11.65;;
74448;SDS011;62878;51.026;4.472;2022-08-18T07:52:37;18.48;;;11.65;;
74448;SDS011;62878;51.026;4.472;2022-08-18T08:00:24;18.27;;;10.45;;
74448;SDS011;62878;51.026;4.472;2022-08-18T08:05:52;15.10;;;9.77;;
74448;SDS011;62878;51.026;4.472;2022-08-18T08:14:18;15.38;;;9.07;;
74448;SDS011;62878;51.026;4.472;2022-08-18T08:17:11;15.07;;;9.35;;
74448;SDS011;62878;51.026;4.472;2022-08-18T08:22:43;13.52;;;7.93;;
74448;SDS011;62878;51.026;4.472;2022-08-18T08:25:25;12.63;;;7.50;;
74448;SDS011;62878;51.026;4.472;2022-08-18T08:28:18;12.38;;;8.63;;
74448;SDS011;62878;51.026;4.472;2022-08-18T08:31:28;13.13;;;8.35;;
74448;SDS011;62878;51.026;4.472;2022-08-18T08:34:23;12.52;;;8.48;;
74448;SDS011;62878;51.026;4.472;2022-08-18T08:37:00;15.48;;;8.07;;
74448;SDS011;62878;51.026;4.472;2022-08-18T08:39:38;12.48;;;8.07;;
74448;SDS011;62878;51.026;4.472;2022-08-18T08:44:50;10.65;;;7.45;;
74448;SDS011;62878;51.026;4.472;2022-08-18T08:47:23;12.10;;;7.70;;
74448;SDS011;62878;51.026;4.472;2022-08-18T08:49:53;8.98;;;6.38;;
74448;SDS011;62878;51.026;4.472;2022-08-18T08:54:53;10.93;;;6.65;;
74448;SDS011;62878;51.026;4.472;2022-08-18T08:57:40;9.00;;;5.97;;
74448;SDS011;62878;51.026;4.472;2022-08-18T09:00:11;10.05;;;6.38;;
74448;SDS011;62878;51.026;4.472;2022-08-18T09:24:25;8.30;;;4.60;;
74448;SDS011;62878;51.026;4.472;2022-08-18T09:29:49;6.13;;;4.50;;
74448;SDS011;62878;51.026;4.472;2022-08-18T09:34:48;7.40;;;5.10;;
74448;SDS011;62878;51.026;4.472;2022-08-18T09:37:22;5.90;;;4.55;;
74448;SDS011;62878;51.026;4.472;2022-08-18T09:43:11;6.83;;;4.27;;
74448;SDS011;62878;51.026;4.472;2022-08-18T09:51:15;6.67;;;4.40;;
74448;SDS011;62878;51.026;4.472;2022-08-18T10:02:01;6.47;;;4.50;;
74448;SDS011;62878;51.026;4.472;2022-08-18T10:20:23;8.18;;;6.30;;
74448;SDS011;62878;51.026;4.472;2022-08-18T10:23:02;8.50;;;5.13;;
74448;SDS011;62878;51.026;4.472;2022-08-18T10:25:36;6.15;;;5.13;;
74448;SDS011;62878;51.026;4.472;2022-08-18T10:28:08;7.20;;;6.32;;
74448;SDS011;62878;51.026;4.472;2022-08-18T10:33:02;8.02;;;7.20;;
74448;SDS011;62878;51.026;4.472;2022-08-18T10:38:08;9.40;;;6.32;;
74448;SDS011;62878;51.026;4.472;2022-08-18T10:40:38;6.20;;;5.60;;
74448;SDS011;62878;51.026;4.472;2022-08-18T10:43:17;7.75;;;5.32;;
74448;SDS011;62878;51.026;4.472;2022-08-18T10:45:54;8.77;;;6.32;;
74448;SDS011;62878;51.026;4.472;2022-08-18T10:51:01;5.93;;;5.22;;
74448;SDS011;62878;51.026;4.472;2022-08-18T10:53:51;8.50;;;5.10;;
74448;SDS011;62878;51.026;4.472;2022-08-18T11:02:00;6.95;;;5.00;;
74448;SDS011;62878;51.026;4.472;2022-08-18T11:07:20;5.22;;;4.70;;
74448;SDS011;62878;51.026;4.472;2022-08-18T11:09:48;6.05;;;4.28;;
74448;SDS011;62878;51.026;4.472;2022-08-18T11:15:14;5.90;;;4.63;;
74448;SDS011;62878;51.026;4.472;2022-08-18T11:20:45;8.25;;;4.38;;
74448;SDS011;62878;51.026;4.472;2022-08-18T11:23:12;8.43;;;4.43;;
74448;SDS011;62878;51.026;4.472;2022-08-18T11:25:39;6.88;;;4.60;;
74448;SDS011;62878;51.026;4.472;2022-08-18T11:28:16;5.28;;;4.40;;
74448;SDS011;62878;51.026;4.472;2022-08-18T11:30:46;6.70;;;4.72;;
74448;SDS011;62878;51.026;4.472;2022-08-18T11:33:15;6.07;;;4.55;;
74448;SDS011;62878;51.026;4.472;2022-08-18T11:35:49;4.40;;;3.88;;
74448;SDS011;62878;51.026;4.472;2022-08-18T11:38:18;5.22;;;4.60;;
74448;SDS011;62878;51.026;4.472;2022-08-18T11:40:51;6.68;;;4.70;;
74448;SDS011;62878;51.026;4.472;2022-08-18T11:43:33;4.65;;;4.03;;
74448;SDS011;62878;51.026;4.472;2022-08-18T11:46:10;4.75;;;4.28;;
74448;SDS011;62878;51.026;4.472;2022-08-18T11:48:45;4.80;;;4.40;;
74448;SDS011;62878;51.026;4.472;2022-08-18T11:53:49;5.20;;;4.70;;
74448;SDS011;62878;51.026;4.472;2022-08-18T11:56:30;4.65;;;3.90;;
74448;SDS011;62878;51.026;4.472;2022-08-18T11:58:58;4.65;;;4.15;;
74448;SDS011;62878;51.026;4.472;2022-08-18T12:06:40;4.70;;;4.10;;
74448;SDS011;62878;51.026;4.472;2022-08-18T12:09:18;4.65;;;3.83;;
74448;SDS011;62878;51.026;4.472;2022-08-18T12:12:29;5.53;;;3.83;;
74448;SDS011;62878;51.026;4.472;2022-08-18T12:17:14;4.88;;;4.43;;
74448;SDS011;62878;51.026;4.472;2022-08-18T12:19:39;5.28;;;3.88;;
74448;SDS011;62878;51.026;4.472;2022-08-18T12:22:11;6.40;;;3.83;;
74448;SDS011;62878;51.026;4.472;2022-08-18T12:24:48;5.03;;;4.53;;
74448;SDS011;62878;51.026;4.472;2022-08-18T12:27:15;4.93;;;4.28;;
74448;SDS011;62878;51.026;4.472;2022-08-18T12:29:43;4.93;;;4.30;;
74448;SDS011;62878;51.026;4.472;2022-08-18T12:32:08;4.72;;;4.30;;
74448;SDS011;62878;51.026;4.472;2022-08-18T12:34:35;5.25;;;3.88;;
74448;SDS011;62878;51.026;4.472;2022-08-18T12:37:01;4.15;;;3.75;;
74448;SDS011;62878;51.026;4.472;2022-08-18T12:39:27;5.57;;;5.05;;
74448;SDS011;62878;51.026;4.472;2022-08-18T12:41:54;4.47;;;4.13;;
74448;SDS011;62878;51.026;4.472;2022-08-18T12:44:20;6.55;;;4.30;;
74448;SDS011;62878;51.026;4.472;2022-08-18T12:46:46;5.55;;;4.70;;
74448;SDS011;62878;51.026;4.472;2022-08-18T12:49:16;5.00;;;4.18;;
74448;SDS011;62878;51.026;4.472;2022-08-18T12:51:43;4.47;;;4.07;;
74448;SDS011;62878;51.026;4.472;2022-08-18T12:54:09;4.57;;;4.18;;
74448;SDS011;62878;51.026;4.472;2022-08-18T12:56:35;4.43;;;4.03;;
74448;SDS011;62878;51.026;4.472;2022-08-18T12:59:02;5.63;;;4.68;;
74448;SDS011;62878;51.026;4.472;2022-08-18T13:01:29;4.82;;;4.22;;
74448;SDS011;62878;51.026;4.472;2022-08-18T13:03:56;5.07;;;4.47;;
74448;SDS011;62878;51.026;4.472;2022-08-18T13:06:23;4.97;;;4.57;;
74448;SDS011;62878;51.026;4.472;2022-08-18T13:08:49;5.50;;;4.85;;
74448;SDS011;62878;51.026;4.472;2022-08-18T13:11:16;5.40;;;4.53;;
74448;SDS011;62878;51.026;4.472;2022-08-18T13:13:45;5.07;;;4.57;;
74448;SDS011;62878;51.026;4.472;2022-08-18T13:16:11;6.85;;;5.13;;
74448;SDS011;62878;51.026;4.472;2022-08-18T13:18:38;5.28;;;4.78;;
74448;SDS011;62878;51.026;4.472;2022-08-18T13:21:06;9.50;;;8.18;;
74448;SDS011;62878;51.026;4.472;2022-08-18T13:23:33;8.43;;;7.63;;
74448;SDS011;62878;51.026;4.472;2022-08-18T13:25:59;8.93;;;8.05;;
74448;SDS011;62878;51.026;4.472;2022-08-18T13:28:25;9.57;;;7.45;;
74448;SDS011;62878;51.026;4.472;2022-08-18T13:30:51;8.38;;;7.13;;
74448;SDS011;62878;51.026;4.472;2022-08-18T13:33:17;8.20;;;7.40;;
74448;SDS011;62878;51.026;4.472;2022-08-18T13:35:45;7.55;;;6.78;;
74448;SDS011;62878;51.026;4.472;2022-08-18T13:38:12;7.20;;;6.50;;
74448;SDS011;62878;51.026;4.472;2022-08-18T13:40:39;7.93;;;6.68;;
74448;SDS011;62878;51.026;4.472;2022-08-18T13:43:05;11.50;;;6.38;;
74448;SDS011;62878;51.026;4.472;2022-08-18T13:45:32;7.32;;;6.38;;
74448;SDS011;62878;51.026;4.472;2022-08-18T13:47:58;9.23;;;7.75;;
74448;SDS011;62878;51.026;4.472;2022-08-18T13:50:23;12.80;;;11.52;;
74448;SDS011;62878;51.026;4.472;2022-08-18T13:52:50;15.77;;;12.05;;
74448;SDS011;62878;51.026;4.472;2022-08-18T13:55:17;12.27;;;11.07;;
74448;SDS011;62878;51.026;4.472;2022-08-18T13:57:42;13.45;;;9.98;;
74448;SDS011;62878;51.026;4.472;2022-08-18T14:00:14;14.38;;;11.30;;
74448;SDS011;62878;51.026;4.472;2022-08-18T14:02:43;13.27;;;11.50;;
74448;SDS011;62878;51.026;4.472;2022-08-18T14:05:10;14.05;;;12.55;;
74448;SDS011;62878;51.026;4.472;2022-08-18T14:07:36;17.38;;;14.95;;
74448;SDS011;62878;51.026;4.472;2022-08-18T14:10:03;14.60;;;12.25;;
74448;SDS011;62878;51.026;4.472;2022-08-18T14:12:31;18.63;;;12.77;;
74448;SDS011;62878;51.026;4.472;2022-08-18T14:14:59;16.55;;;11.63;;
74448;SDS011;62878;51.026;4.472;2022-08-18T14:17:24;13.45;;;11.00;;
74448;SDS011;62878;51.026;4.472;2022-08-18T14:19:51;14.70;;;10.50;;
74448;SDS011;62878;51.026;4.472;2022-08-18T14:22:37;14.15;;;10.80;;
74448;SDS011;62878;51.026;4.472;2022-08-18T14:25:21;11.88;;;10.60;;
74448;SDS011;62878;51.026;4.472;2022-08-18T14:28:05;12.35;;;10.65;;
74448;SDS011;62878;51.026;4.472;2022-08-18T14:30:33;11.68;;;10.45;;
74448;SDS011;62878;51.026;4.472;2022-08-18T14:33:00;11.57;;;9.82;;
74448;SDS011;62878;51.026;4.472;2022-08-18T14:35:25;13.18;;;11.13;;
74448;SDS011;62878;51.026;4.472;2022-08-18T14:37:50;11.75;;;9.32;;
74448;SDS011;62878;51.026;4.472;2022-08-18T14:40:16;11.35;;;9.35;;
74448;SDS011;62878;51.026;4.472;2022-08-18T14:42:45;13.32;;;9.63;;
74448;SDS011;62878;51.026;4.472;2022-08-18T14:45:11;11.07;;;9.95;;
74448;SDS011;62878;51.026;4.472;2022-08-18T14:47:38;14.43;;;9.48;;
74448;SDS011;62878;51.026;4.472;2022-08-18T14:50:05;11.50;;;8.98;;
74448;SDS011;62878;51.026;4.472;2022-08-18T14:52:31;9.95;;;8.30;;
74448;SDS011;62878;51.026;4.472;2022-08-18T14:54:56;9.60;;;8.60;;
74448;SDS011;62878;51.026;4.472;2022-08-18T14:57:22;8.98;;;8.15;;
74448;SDS011;62878;51.026;4.472;2022-08-18T14:59:48;9.98;;;8.02;;
74448;SDS011;62878;51.026;4.472;2022-08-18T15:02:14;9.15;;;8.25;;
74448;SDS011;62878;51.026;4.472;2022-08-18T15:04:40;9.55;;;8.25;;
74448;SDS011;62878;51.026;4.472;2022-08-18T15:07:05;11.98;;;8.60;;
74448;SDS011;62878;51.026;4.472;2022-08-18T15:09:31;13.18;;;8.48;;
74448;SDS011;62878;51.026;4.472;2022-08-18T15:11:56;9.43;;;8.52;;
74448;SDS011;62878;51.026;4.472;2022-08-18T15:14:24;13.25;;;8.07;;
74448;SDS011;62878;51.026;4.472;2022-08-18T15:16:51;11.27;;;8.43;;
74448;SDS011;62878;51.026;4.472;2022-08-18T15:19:17;9.80;;;7.53;;
74448;SDS011;62878;51.026;4.472;2022-08-18T15:21:42;7.95;;;6.70;;
74448;SDS011;62878;51.026;4.472;2022-08-18T15:24:26;9.10;;;8.02;;
74448;SDS011;62878;51.026;4.472;2022-08-18T15:27:10;8.70;;;6.68;;
74448;SDS011;62878;51.026;4.472;2022-08-18T15:29:35;9.32;;;7.28;;
74448;SDS011;62878;51.026;4.472;2022-08-18T15:32:01;7.95;;;7.18;;
74448;SDS011;62878;51.026;4.472;2022-08-18T15:34:27;7.80;;;7.00;;
74448;SDS011;62878;51.026;4.472;2022-08-18T15:36:53;8.00;;;7.20;;
74448;SDS011;62878;51.026;4.472;2022-08-18T15:39:21;8.40;;;7.50;;
74448;SDS011;62878;51.026;4.472;2022-08-18T15:41:47;8.30;;;7.50;;
74448;SDS011;62878;51.026;4.472;2022-08-18T15:44:14;10.23;;;7.07;;
74448;SDS011;62878;51.026;4.472;2022-08-18T15:46:41;7.20;;;6.55;;
74448;SDS011;62878;51.026;4.472;2022-08-18T15:51:41;8.82;;;7.13;;
74448;SDS011;62878;51.026;4.472;2022-08-18T15:54:09;7.68;;;6.97;;
74448;SDS011;62878;51.026;4.472;2022-08-18T15:56:35;8.10;;;7.30;;
74448;SDS011;62878;51.026;4.472;2022-08-18T15:59:01;7.72;;;6.78;;
74448;SDS011;62878;51.026;4.472;2022-08-18T16:01:31;7.97;;;6.70;;
74448;SDS011;62878;51.026;4.472;2022-08-18T16:04:01;7.63;;;6.25;;
74448;SDS011;62878;51.026;4.472;2022-08-18T16:06:28;6.65;;;6.05;;
74448;SDS011;62878;51.026;4.472;2022-08-18T16:08:54;7.68;;;6.72;;
74448;SDS011;62878;51.026;4.472;2022-08-18T16:11:20;7.68;;;6.78;;
74448;SDS011;62878;51.026;4.472;2022-08-18T16:13:49;8.15;;;7.13;;
74448;SDS011;62878;51.026;4.472;2022-08-18T16:16:19;6.55;;;5.93;;
74448;SDS011;62878;51.026;4.472;2022-08-18T16:18:47;7.32;;;5.55;;
74448;SDS011;62878;51.026;4.472;2022-08-18T16:21:14;6.35;;;5.72;;
74448;SDS011;62878;51.026;4.472;2022-08-18T16:23:46;8.15;;;5.80;;
74448;SDS011;62878;51.026;4.472;2022-08-18T16:26:14;6.07;;;5.47;;
74448;SDS011;62878;51.026;4.472;2022-08-18T16:28:41;6.63;;;5.57;;
74448;SDS011;62878;51.026;4.472;2022-08-18T16:31:09;7.07;;;5.95;;
74448;SDS011;62878;51.026;4.472;2022-08-18T16:33:37;8.07;;;5.65;;
74448;SDS011;62878;51.026;4.472;2022-08-18T16:36:05;8.05;;;5.22;;
74448;SDS011;62878;51.026;4.472;2022-08-18T16:38:33;5.93;;;5.30;;
74448;SDS011;62878;51.026;4.472;2022-08-18T16:41:06;5.97;;;5.38;;
74448;SDS011;62878;51.026;4.472;2022-08-18T16:43:33;5.50;;;4.97;;
74448;SDS011;62878;51.026;4.472;2022-08-18T16:46:00;7.30;;;4.80;;
74448;SDS011;62878;51.026;4.472;2022-08-18T16:48:26;5.47;;;4.97;;
74448;SDS011;62878;51.026;4.472;2022-08-18T16:50:52;5.78;;;4.47;;
74448;SDS011;62878;51.026;4.472;2022-08-18T16:53:18;5.15;;;4.65;;
74448;SDS011;62878;51.026;4.472;2022-08-18T16:55:43;5.88;;;4.78;;
74448;SDS011;62878;51.026;4.472;2022-08-18T16:58:09;5.07;;;4.57;;
74448;SDS011;62878;51.026;4.472;2022-08-18T17:00:53;4.50;;;4.05;;
74448;SDS011;62878;51.026;4.472;2022-08-18T17:03:38;4.95;;;4.55;;
74448;SDS011;62878;51.026;4.472;2022-08-18T17:06:22;6.10;;;5.40;;
74448;SDS011;62878;51.026;4.472;2022-08-18T17:08:53;5.05;;;4.25;;
74448;SDS011;62878;51.026;4.472;2022-08-18T17:11:21;4.82;;;4.35;;
74448;SDS011;62878;51.026;4.472;2022-08-18T17:13:51;5.78;;;4.22;;
74448;SDS011;62878;51.026;4.472;2022-08-18T17:16:18;5.00;;;4.50;;
74448;SDS011;62878;51.026;4.472;2022-08-18T17:18:44;5.13;;;4.63;;
74448;SDS011;62878;51.026;4.472;2022-08-18T17:21:12;6.32;;;5.22;;
74448;SDS011;62878;51.026;4.472;2022-08-18T17:23:40;4.95;;;4.45;;
74448;SDS011;62878;51.026;4.472;2022-08-18T17:26:08;5.60;;;5.05;;
74448;SDS011;62878;51.026;4.472;2022-08-18T17:28:41;4.80;;;4.40;;
74448;SDS011;62878;51.026;4.472;2022-08-18T17:31:09;5.13;;;4.65;;
74448;SDS011;62878;51.026;4.472;2022-08-18T17:33:36;4.10;;;3.70;;